sensor_id;sensor_type;location;lat;lon;timestamp;temperature;humidity
8858;DHT22;4465;50.904;4.696;2022-10-16T00:02:01;13.80;99.90
8858;DHT22;4465;50.904;4.696;2022-10-16T00:04:30;13.80;99.90
8858;DHT22;4465;50.904;4.696;2022-10-16T00:06:56;13.80;99.90
8858;DHT22;4465;50.904;4.696;2022-10-16T00:09:22;13.70;99.90
8858;DHT22;4465;50.904;4.696;2022-10-16T00:11:50;13.80;99.90
8858;DHT22;4465;50.904;4.696;2022-10-16T00:14:16;13.80;99.90
8858;DHT22;4465;50.904;4.696;2022-10-16T00:16:48;13.80;99.90
8858;DHT22;4465;50.904;4.696;2022-10-16T00:19:16;13.80;99.90
8858;DHT22;4465;50.904;4.696;2022-10-16T00:21:42;13.80;99.90
8858;DHT22;4465;50.904;4.696;2022-10-16T00:24:08;13.80;99.90
8858;DHT22;4465;50.904;4.696;2022-10-16T00:26:35;13.80;99.90
8858;DHT22;4465;50.904;4.696;2022-10-16T00:29:02;13.80;99.90
8858;DHT22;4465;50.904;4.696;2022-10-16T00:31:28;13.70;99.90
8858;DHT22;4465;50.904;4.696;2022-10-16T00:33:55;13.80;99.90
8858;DHT22;4465;50.904;4.696;2022-10-16T00:36:23;13.80;99.90
8858;DHT22;4465;50.904;4.696;2022-10-16T00:38:50;13.80;99.90
8858;DHT22;4465;50.904;4.696;2022-10-16T00:41:18;13.80;99.90
8858;DHT22;4465;50.904;4.696;2022-10-16T00:48:38;13.80;99.90
8858;DHT22;4465;50.904;4.696;2022-10-16T00:51:04;13.80;99.90
8858;DHT22;4465;50.904;4.696;2022-10-16T00:53:31;13.70;99.90
8858;DHT22;4465;50.904;4.696;2022-10-16T00:55:59;13.70;99.90
8858;DHT22;4465;50.904;4.696;2022-10-16T00:58:25;13.70;99.90
8858;DHT22;4465;50.904;4.696;2022-10-16T01:00:51;13.70;99.90
8858;DHT22;4465;50.904;4.696;2022-10-16T01:03:24;13.70;99.90
8858;DHT22;4465;50.904;4.696;2022-10-16T01:05:53;13.70;99.90
8858;DHT22;4465;50.904;4.696;2022-10-16T01:08:25;13.60;99.90
8858;DHT22;4465;50.904;4.696;2022-10-16T01:13:46;13.60;99.90
8858;DHT22;4465;50.904;4.696;2022-10-16T01:16:22;13.70;99.90
8858;DHT22;4465;50.904;4.696;2022-10-16T01:19:09;13.60;99.90
8858;DHT22;4465;50.904;4.696;2022-10-16T01:21:42;13.60;99.90
8858;DHT22;4465;50.904;4.696;2022-10-16T01:24:31;13.60;99.90
8858;DHT22;4465;50.904;4.696;2022-10-16T01:34:51;13.60;99.90
8858;DHT22;4465;50.904;4.696;2022-10-16T01:37:22;13.60;99.90
8858;DHT22;4465;50.904;4.696;2022-10-16T01:39:48;13.60;99.90
8858;DHT22;4465;50.904;4.696;2022-10-16T01:42:20;13.60;99.90
8858;DHT22;4465;50.904;4.696;2022-10-16T01:44:49;13.60;99.90
8858;DHT22;4465;50.904;4.696;2022-10-16T01:47:15;13.60;99.90
8858;DHT22;4465;50.904;4.696;2022-10-16T01:49:43;13.60;99.90
8858;DHT22;4465;50.904;4.696;2022-10-16T01:52:11;13.60;99.90
8858;DHT22;4465;50.904;4.696;2022-10-16T01:54:40;13.60;99.90
8858;DHT22;4465;50.904;4.696;2022-10-16T01:57:07;13.60;99.90
8858;DHT22;4465;50.904;4.696;2022-10-16T01:59:38;13.50;99.90
8858;DHT22;4465;50.904;4.696;2022-10-16T02:02:06;13.60;99.90
8858;DHT22;4465;50.904;4.696;2022-10-16T02:04:47;13.60;99.90
8858;DHT22;4465;50.904;4.696;2022-10-16T02:07:14;13.60;99.90
8858;DHT22;4465;50.904;4.696;2022-10-16T02:09:41;13.60;99.90
8858;DHT22;4465;50.904;4.696;2022-10-16T02:12:13;13.50;99.90
8858;DHT22;4465;50.904;4.696;2022-10-16T02:14:40;13.50;99.90
8858;DHT22;4465;50.904;4.696;2022-10-16T02:17:10;13.50;99.90
8858;DHT22;4465;50.904;4.696;2022-10-16T02:19:37;13.50;99.90
8858;DHT22;4465;50.904;4.696;2022-10-16T02:22:03;13.50;99.90
8858;DHT22;4465;50.904;4.696;2022-10-16T02:24:33;13.50;99.90
8858;DHT22;4465;50.904;4.696;2022-10-16T02:27:03;13.50;99.90
8858;DHT22;4465;50.904;4.696;2022-10-16T02:29:32;13.50;99.90
8858;DHT22;4465;50.904;4.696;2022-10-16T02:32:00;13.50;99.90
8858;DHT22;4465;50.904;4.696;2022-10-16T02:34:28;13.50;99.90
8858;DHT22;4465;50.904;4.696;2022-10-16T02:36:55;13.50;99.90
8858;DHT22;4465;50.904;4.696;2022-10-16T02:39:24;13.50;99.90
8858;DHT22;4465;50.904;4.696;2022-10-16T02:41:51;13.50;99.90
8858;DHT22;4465;50.904;4.696;2022-10-16T02:44:17;13.50;99.90
8858;DHT22;4465;50.904;4.696;2022-10-16T02:46:43;13.50;99.90
8858;DHT22;4465;50.904;4.696;2022-10-16T02:49:09;13.50;99.90
8858;DHT22;4465;50.904;4.696;2022-10-16T02:51:35;13.50;99.90
8858;DHT22;4465;50.904;4.696;2022-10-16T02:54:02;13.50;99.90
8858;DHT22;4465;50.904;4.696;2022-10-16T02:56:27;13.50;99.90
8858;DHT22;4465;50.904;4.696;2022-10-16T02:58:53;13.50;99.90
8858;DHT22;4465;50.904;4.696;2022-10-16T03:01:19;13.40;99.90
8858;DHT22;4465;50.904;4.696;2022-10-16T03:03:45;13.50;99.90
8858;DHT22;4465;50.904;4.696;2022-10-16T03:06:11;13.40;99.90
8858;DHT22;4465;50.904;4.696;2022-10-16T03:08:37;13.50;99.90
8858;DHT22;4465;50.904;4.696;2022-10-16T03:11:03;13.40;99.90
8858;DHT22;4465;50.904;4.696;2022-10-16T03:13:29;13.40;99.90
8858;DHT22;4465;50.904;4.696;2022-10-16T03:15:55;13.40;99.90
8858;DHT22;4465;50.904;4.696;2022-10-16T03:18:20;13.40;99.90
8858;DHT22;4465;50.904;4.696;2022-10-16T03:20:47;13.40;99.90
8858;DHT22;4465;50.904;4.696;2022-10-16T03:23:13;13.40;99.90
8858;DHT22;4465;50.904;4.696;2022-10-16T03:25:39;13.40;99.90
8858;DHT22;4465;50.904;4.696;2022-10-16T03:28:05;13.40;99.90
8858;DHT22;4465;50.904;4.696;2022-10-16T03:30:31;13.40;99.90
8858;DHT22;4465;50.904;4.696;2022-10-16T03:32:57;13.40;99.90
8858;DHT22;4465;50.904;4.696;2022-10-16T03:35:23;13.40;99.90
8858;DHT22;4465;50.904;4.696;2022-10-16T03:37:49;13.40;99.90
8858;DHT22;4465;50.904;4.696;2022-10-16T03:40:15;13.40;99.90
8858;DHT22;4465;50.904;4.696;2022-10-16T03:42:42;13.40;99.90
8858;DHT22;4465;50.904;4.696;2022-10-16T03:45:08;13.40;99.90
8858;DHT22;4465;50.904;4.696;2022-10-16T03:47:34;13.40;99.90
8858;DHT22;4465;50.904;4.696;2022-10-16T03:50:03;13.40;99.90
8858;DHT22;4465;50.904;4.696;2022-10-16T03:52:29;13.50;99.90
8858;DHT22;4465;50.904;4.696;2022-10-16T03:54:55;13.40;99.90
8858;DHT22;4465;50.904;4.696;2022-10-16T03:57:21;13.50;99.90
8858;DHT22;4465;50.904;4.696;2022-10-16T03:59:47;13.40;99.90
8858;DHT22;4465;50.904;4.696;2022-10-16T04:02:13;13.40;99.90
8858;DHT22;4465;50.904;4.696;2022-10-16T04:04:39;13.60;99.90
8858;DHT22;4465;50.904;4.696;2022-10-16T04:07:08;13.40;99.90
8858;DHT22;4465;50.904;4.696;2022-10-16T04:09:34;13.40;99.90
8858;DHT22;4465;50.904;4.696;2022-10-16T04:11:59;13.50;99.90
8858;DHT22;4465;50.904;4.696;2022-10-16T04:14:27;13.40;99.90
8858;DHT22;4465;50.904;4.696;2022-10-16T04:16:53;13.50;99.90
8858;DHT22;4465;50.904;4.696;2022-10-16T04:19:19;13.60;99.90
8858;DHT22;4465;50.904;4.696;2022-10-16T04:21:45;13.40;99.90
8858;DHT22;4465;50.904;4.696;2022-10-16T04:24:11;13.50;99.90
8858;DHT22;4465;50.904;4.696;2022-10-16T04:26:39;13.50;99.90
8858;DHT22;4465;50.904;4.696;2022-10-16T04:29:05;13.50;99.90
8858;DHT22;4465;50.904;4.696;2022-10-16T04:31:32;13.50;99.90
8858;DHT22;4465;50.904;4.696;2022-10-16T04:33:59;13.50;99.90
8858;DHT22;4465;50.904;4.696;2022-10-16T04:36:25;13.50;99.90
8858;DHT22;4465;50.904;4.696;2022-10-16T04:38:51;13.60;99.90
8858;DHT22;4465;50.904;4.696;2022-10-16T04:41:17;13.50;99.90
8858;DHT22;4465;50.904;4.696;2022-10-16T04:43:43;13.50;99.90
8858;DHT22;4465;50.904;4.696;2022-10-16T04:46:11;13.50;99.90
8858;DHT22;4465;50.904;4.696;2022-10-16T04:48:37;13.50;99.90
8858;DHT22;4465;50.904;4.696;2022-10-16T04:51:03;13.60;99.90
8858;DHT22;4465;50.904;4.696;2022-10-16T04:53:29;13.50;99.90
8858;DHT22;4465;50.904;4.696;2022-10-16T04:55:57;13.60;99.90
8858;DHT22;4465;50.904;4.696;2022-10-16T04:58:23;13.50;99.90
8858;DHT22;4465;50.904;4.696;2022-10-16T05:00:49;13.50;99.90
8858;DHT22;4465;50.904;4.696;2022-10-16T05:03:15;13.50;99.90
8858;DHT22;4465;50.904;4.696;2022-10-16T05:05:42;13.50;99.90
8858;DHT22;4465;50.904;4.696;2022-10-16T05:08:09;13.50;99.90
8858;DHT22;4465;50.904;4.696;2022-10-16T05:10:35;13.50;99.90
8858;DHT22;4465;50.904;4.696;2022-10-16T05:13:01;13.40;99.90
8858;DHT22;4465;50.904;4.696;2022-10-16T05:15:27;13.40;99.90
8858;DHT22;4465;50.904;4.696;2022-10-16T05:17:53;13.40;99.90
8858;DHT22;4465;50.904;4.696;2022-10-16T05:20:20;13.40;99.90
8858;DHT22;4465;50.904;4.696;2022-10-16T05:22:48;13.40;99.90
8858;DHT22;4465;50.904;4.696;2022-10-16T05:25:15;13.40;99.90
8858;DHT22;4465;50.904;4.696;2022-10-16T05:27:41;13.40;99.90
8858;DHT22;4465;50.904;4.696;2022-10-16T05:30:09;13.40;99.90
8858;DHT22;4465;50.904;4.696;2022-10-16T05:32:38;13.40;99.90
8858;DHT22;4465;50.904;4.696;2022-10-16T05:35:04;13.40;99.90
8858;DHT22;4465;50.904;4.696;2022-10-16T05:37:30;13.40;99.90
8858;DHT22;4465;50.904;4.696;2022-10-16T05:39:56;13.40;99.90
8858;DHT22;4465;50.904;4.696;2022-10-16T05:42:22;13.40;99.90
8858;DHT22;4465;50.904;4.696;2022-10-16T05:44:48;13.30;99.90
8858;DHT22;4465;50.904;4.696;2022-10-16T05:47:14;13.40;99.90
8858;DHT22;4465;50.904;4.696;2022-10-16T05:49:40;13.30;99.90
8858;DHT22;4465;50.904;4.696;2022-10-16T05:52:08;13.30;99.90
8858;DHT22;4465;50.904;4.696;2022-10-16T05:54:34;13.30;99.90
8858;DHT22;4465;50.904;4.696;2022-10-16T05:57:01;13.40;99.90
8858;DHT22;4465;50.904;4.696;2022-10-16T05:59:27;13.30;99.90
8858;DHT22;4465;50.904;4.696;2022-10-16T06:01:54;13.30;99.90
8858;DHT22;4465;50.904;4.696;2022-10-16T06:04:20;13.30;99.90
8858;DHT22;4465;50.904;4.696;2022-10-16T06:06:46;13.30;99.90
8858;DHT22;4465;50.904;4.696;2022-10-16T06:09:12;13.20;99.90
8858;DHT22;4465;50.904;4.696;2022-10-16T06:11:38;13.30;99.90
8858;DHT22;4465;50.904;4.696;2022-10-16T06:14:05;13.20;99.90
8858;DHT22;4465;50.904;4.696;2022-10-16T06:16:37;13.30;99.90
8858;DHT22;4465;50.904;4.696;2022-10-16T06:19:03;13.20;99.90
8858;DHT22;4465;50.904;4.696;2022-10-16T06:21:32;13.30;99.90
8858;DHT22;4465;50.904;4.696;2022-10-16T06:23:58;13.30;99.90
8858;DHT22;4465;50.904;4.696;2022-10-16T06:26:29;13.30;99.90
8858;DHT22;4465;50.904;4.696;2022-10-16T06:28:56;13.30;99.90
8858;DHT22;4465;50.904;4.696;2022-10-16T06:31:22;13.30;99.90
8858;DHT22;4465;50.904;4.696;2022-10-16T06:33:51;13.30;99.90
8858;DHT22;4465;50.904;4.696;2022-10-16T06:36:18;13.30;99.90
8858;DHT22;4465;50.904;4.696;2022-10-16T06:38:46;13.30;99.90
8858;DHT22;4465;50.904;4.696;2022-10-16T06:41:13;13.20;99.90
8858;DHT22;4465;50.904;4.696;2022-10-16T06:43:40;13.20;99.90
8858;DHT22;4465;50.904;4.696;2022-10-16T06:46:07;13.20;99.90
8858;DHT22;4465;50.904;4.696;2022-10-16T06:48:36;13.30;99.90
8858;DHT22;4465;50.904;4.696;2022-10-16T06:51:08;13.30;99.90
8858;DHT22;4465;50.904;4.696;2022-10-16T06:53:35;13.30;99.90
8858;DHT22;4465;50.904;4.696;2022-10-16T06:56:08;13.30;99.90
8858;DHT22;4465;50.904;4.696;2022-10-16T06:58:37;13.30;99.90
8858;DHT22;4465;50.904;4.696;2022-10-16T07:01:03;13.30;99.90
8858;DHT22;4465;50.904;4.696;2022-10-16T07:03:29;13.30;99.90
8858;DHT22;4465;50.904;4.696;2022-10-16T07:05:55;13.40;99.90
8858;DHT22;4465;50.904;4.696;2022-10-16T07:08:21;13.40;99.90
8858;DHT22;4465;50.904;4.696;2022-10-16T07:10:57;13.40;99.90
8858;DHT22;4465;50.904;4.696;2022-10-16T07:13:23;13.40;99.90
8858;DHT22;4465;50.904;4.696;2022-10-16T07:15:49;13.50;99.90
8858;DHT22;4465;50.904;4.696;2022-10-16T07:18:14;13.50;99.90
8858;DHT22;4465;50.904;4.696;2022-10-16T07:20:40;13.60;99.90
8858;DHT22;4465;50.904;4.696;2022-10-16T07:23:06;13.60;99.90
8858;DHT22;4465;50.904;4.696;2022-10-16T07:25:32;13.70;99.90
8858;DHT22;4465;50.904;4.696;2022-10-16T07:28:01;13.70;99.90
8858;DHT22;4465;50.904;4.696;2022-10-16T07:30:26;13.80;99.90
8858;DHT22;4465;50.904;4.696;2022-10-16T07:32:53;13.90;99.90
8858;DHT22;4465;50.904;4.696;2022-10-16T07:35:19;13.90;99.90
8858;DHT22;4465;50.904;4.696;2022-10-16T07:37:45;14.00;99.90
8858;DHT22;4465;50.904;4.696;2022-10-16T07:40:11;14.10;99.90
8858;DHT22;4465;50.904;4.696;2022-10-16T07:42:37;14.20;99.90
8858;DHT22;4465;50.904;4.696;2022-10-16T07:45:03;14.20;99.90
8858;DHT22;4465;50.904;4.696;2022-10-16T07:47:29;14.40;99.90
8858;DHT22;4465;50.904;4.696;2022-10-16T07:49:57;14.40;99.90
8858;DHT22;4465;50.904;4.696;2022-10-16T07:52:23;14.50;99.90
8858;DHT22;4465;50.904;4.696;2022-10-16T07:54:49;14.60;99.90
8858;DHT22;4465;50.904;4.696;2022-10-16T07:57:15;14.70;99.90
8858;DHT22;4465;50.904;4.696;2022-10-16T07:59:45;14.70;99.90
8858;DHT22;4465;50.904;4.696;2022-10-16T08:02:11;14.80;99.90
8858;DHT22;4465;50.904;4.696;2022-10-16T08:04:40;14.80;99.90
8858;DHT22;4465;50.904;4.696;2022-10-16T08:07:06;14.90;99.90
8858;DHT22;4465;50.904;4.696;2022-10-16T08:09:33;15.00;99.90
8858;DHT22;4465;50.904;4.696;2022-10-16T08:11:59;15.10;99.90
8858;DHT22;4465;50.904;4.696;2022-10-16T08:14:25;15.10;99.90
8858;DHT22;4465;50.904;4.696;2022-10-16T08:16:51;15.30;99.90
8858;DHT22;4465;50.904;4.696;2022-10-16T08:19:17;15.30;99.90
8858;DHT22;4465;50.904;4.696;2022-10-16T08:21:46;15.30;99.90
8858;DHT22;4465;50.904;4.696;2022-10-16T08:24:12;15.50;99.90
8858;DHT22;4465;50.904;4.696;2022-10-16T08:26:38;15.50;99.90
8858;DHT22;4465;50.904;4.696;2022-10-16T08:29:04;15.50;99.90
8858;DHT22;4465;50.904;4.696;2022-10-16T08:31:30;15.50;99.90
8858;DHT22;4465;50.904;4.696;2022-10-16T08:33:57;15.50;99.90
8858;DHT22;4465;50.904;4.696;2022-10-16T08:36:23;15.50;99.90
8858;DHT22;4465;50.904;4.696;2022-10-16T08:38:49;15.50;99.90
8858;DHT22;4465;50.904;4.696;2022-10-16T08:46:51;15.50;99.90
8858;DHT22;4465;50.904;4.696;2022-10-16T08:49:22;15.50;99.90
8858;DHT22;4465;50.904;4.696;2022-10-16T08:51:52;15.50;99.90
8858;DHT22;4465;50.904;4.696;2022-10-16T08:56:50;15.50;99.90
8858;DHT22;4465;50.904;4.696;2022-10-16T08:59:17;15.60;99.90
8858;DHT22;4465;50.904;4.696;2022-10-16T09:01:44;15.60;99.90
8858;DHT22;4465;50.904;4.696;2022-10-16T09:06:56;15.70;99.90
8858;DHT22;4465;50.904;4.696;2022-10-16T09:16:53;15.70;99.90
8858;DHT22;4465;50.904;4.696;2022-10-16T09:19:24;15.80;99.90
8858;DHT22;4465;50.904;4.696;2022-10-16T09:21:53;15.80;99.90
8858;DHT22;4465;50.904;4.696;2022-10-16T09:24:20;15.80;99.90
8858;DHT22;4465;50.904;4.696;2022-10-16T09:26:46;15.80;99.90
8858;DHT22;4465;50.904;4.696;2022-10-16T09:29:13;15.80;99.90
8858;DHT22;4465;50.904;4.696;2022-10-16T09:31:40;15.90;99.90
8858;DHT22;4465;50.904;4.696;2022-10-16T09:34:08;15.90;99.90
8858;DHT22;4465;50.904;4.696;2022-10-16T09:36:44;16.00;99.90
8858;DHT22;4465;50.904;4.696;2022-10-16T09:39:11;16.10;99.90
8858;DHT22;4465;50.904;4.696;2022-10-16T09:41:43;16.10;99.90
8858;DHT22;4465;50.904;4.696;2022-10-16T09:46:41;16.20;99.90
8858;DHT22;4465;50.904;4.696;2022-10-16T09:49:23;16.30;99.90
8858;DHT22;4465;50.904;4.696;2022-10-16T09:51:49;16.40;99.90
8858;DHT22;4465;50.904;4.696;2022-10-16T09:54:18;16.50;99.90
8858;DHT22;4465;50.904;4.696;2022-10-16T09:56:44;16.50;99.90
8858;DHT22;4465;50.904;4.696;2022-10-16T09:59:18;16.60;99.90
8858;DHT22;4465;50.904;4.696;2022-10-16T10:01:54;16.70;99.90
8858;DHT22;4465;50.904;4.696;2022-10-16T10:04:22;16.80;99.90
8858;DHT22;4465;50.904;4.696;2022-10-16T10:11:56;17.10;99.90
8858;DHT22;4465;50.904;4.696;2022-10-16T10:14:38;17.20;99.90
8858;DHT22;4465;50.904;4.696;2022-10-16T10:19:38;17.40;99.90
8858;DHT22;4465;50.904;4.696;2022-10-16T10:30:13;17.90;99.90
8858;DHT22;4465;50.904;4.696;2022-10-16T10:32:52;18.00;99.90
8858;DHT22;4465;50.904;4.696;2022-10-16T10:37:55;18.10;99.90
8858;DHT22;4465;50.904;4.696;2022-10-16T10:45:51;18.50;99.90
8858;DHT22;4465;50.904;4.696;2022-10-16T10:48:27;18.60;99.90
8858;DHT22;4465;50.904;4.696;2022-10-16T11:04:27;19.30;99.90
8858;DHT22;4465;50.904;4.696;2022-10-16T11:06:55;19.30;99.90
8858;DHT22;4465;50.904;4.696;2022-10-16T11:12:00;19.30;99.90
8858;DHT22;4465;50.904;4.696;2022-10-16T11:14:31;19.20;99.90
8858;DHT22;4465;50.904;4.696;2022-10-16T11:17:10;19.20;99.90
8858;DHT22;4465;50.904;4.696;2022-10-16T11:19:40;19.10;99.90
8858;DHT22;4465;50.904;4.696;2022-10-16T11:22:54;19.10;99.90
8858;DHT22;4465;50.904;4.696;2022-10-16T11:25:02;19.00;99.90
8858;DHT22;4465;50.904;4.696;2022-10-16T11:27:37;18.90;99.90
8858;DHT22;4465;50.904;4.696;2022-10-16T11:30:06;18.80;99.90
8858;DHT22;4465;50.904;4.696;2022-10-16T11:32:43;18.80;99.90
8858;DHT22;4465;50.904;4.696;2022-10-16T11:35:17;18.70;99.90
8858;DHT22;4465;50.904;4.696;2022-10-16T11:37:45;18.70;99.90
8858;DHT22;4465;50.904;4.696;2022-10-16T11:40:31;18.70;99.90
8858;DHT22;4465;50.904;4.696;2022-10-16T11:43:02;18.70;99.90
8858;DHT22;4465;50.904;4.696;2022-10-16T11:45:39;18.60;99.90
8858;DHT22;4465;50.904;4.696;2022-10-16T11:48:12;18.60;99.90
8858;DHT22;4465;50.904;4.696;2022-10-16T11:50:43;18.50;99.90
8858;DHT22;4465;50.904;4.696;2022-10-16T11:53:21;18.50;99.90
8858;DHT22;4465;50.904;4.696;2022-10-16T11:55:49;18.50;99.90
8858;DHT22;4465;50.904;4.696;2022-10-16T12:00:47;18.40;99.90
8858;DHT22;4465;50.904;4.696;2022-10-16T12:06:13;18.30;99.90
8858;DHT22;4465;50.904;4.696;2022-10-16T12:08:41;18.30;99.90
8858;DHT22;4465;50.904;4.696;2022-10-16T12:13:46;18.20;99.90
8858;DHT22;4465;50.904;4.696;2022-10-16T12:18:45;18.20;99.90
8858;DHT22;4465;50.904;4.696;2022-10-16T12:21:13;18.20;99.90
8858;DHT22;4465;50.904;4.696;2022-10-16T12:23:49;18.20;99.90
8858;DHT22;4465;50.904;4.696;2022-10-16T12:26:27;18.20;99.90
8858;DHT22;4465;50.904;4.696;2022-10-16T12:28:54;18.20;99.90
8858;DHT22;4465;50.904;4.696;2022-10-16T12:31:21;18.20;99.90
8858;DHT22;4465;50.904;4.696;2022-10-16T12:34:01;18.20;99.90
8858;DHT22;4465;50.904;4.696;2022-10-16T12:36:32;18.30;99.90
8858;DHT22;4465;50.904;4.696;2022-10-16T12:39:01;18.30;99.90
8858;DHT22;4465;50.904;4.696;2022-10-16T12:41:34;18.30;99.90
8858;DHT22;4465;50.904;4.696;2022-10-16T12:44:01;18.30;99.90
8858;DHT22;4465;50.904;4.696;2022-10-16T12:51:38;18.30;99.90
8858;DHT22;4465;50.904;4.696;2022-10-16T12:54:17;18.30;99.90
8858;DHT22;4465;50.904;4.696;2022-10-16T13:05:00;18.40;99.90
8858;DHT22;4465;50.904;4.696;2022-10-16T13:07:38;18.40;99.90
8858;DHT22;4465;50.904;4.696;2022-10-16T13:18:29;18.40;99.90
8858;DHT22;4465;50.904;4.696;2022-10-16T13:23:08;18.40;99.90
8858;DHT22;4465;50.904;4.696;2022-10-16T13:25:51;18.30;99.90
8858;DHT22;4465;50.904;4.696;2022-10-16T13:28:22;18.40;99.90
8858;DHT22;4465;50.904;4.696;2022-10-16T13:30:53;18.40;99.90
8858;DHT22;4465;50.904;4.696;2022-10-16T13:33:30;18.40;99.90
8858;DHT22;4465;50.904;4.696;2022-10-16T13:35:57;18.40;99.90
8858;DHT22;4465;50.904;4.696;2022-10-16T13:38:24;18.40;99.90
8858;DHT22;4465;50.904;4.696;2022-10-16T13:41:01;18.40;99.90
8858;DHT22;4465;50.904;4.696;2022-10-16T13:43:29;18.40;99.90
8858;DHT22;4465;50.904;4.696;2022-10-16T13:45:58;18.40;99.90
8858;DHT22;4465;50.904;4.696;2022-10-16T13:48:24;18.40;99.90
8858;DHT22;4465;50.904;4.696;2022-10-16T13:51:10;18.40;99.90
8858;DHT22;4465;50.904;4.696;2022-10-16T13:53:37;18.40;99.90
8858;DHT22;4465;50.904;4.696;2022-10-16T13:56:04;18.50;99.90
8858;DHT22;4465;50.904;4.696;2022-10-16T13:58:30;18.50;99.90
8858;DHT22;4465;50.904;4.696;2022-10-16T14:01:16;18.50;99.90
8858;DHT22;4465;50.904;4.696;2022-10-16T14:03:42;18.50;99.90
8858;DHT22;4465;50.904;4.696;2022-10-16T14:06:17;18.50;99.90
8858;DHT22;4465;50.904;4.696;2022-10-16T14:08:49;18.40;99.90
8858;DHT22;4465;50.904;4.696;2022-10-16T14:11:20;18.40;99.90
8858;DHT22;4465;50.904;4.696;2022-10-16T14:13:47;18.40;99.90
8858;DHT22;4465;50.904;4.696;2022-10-16T14:16:16;18.40;99.90
8858;DHT22;4465;50.904;4.696;2022-10-16T14:18:45;18.40;99.90
8858;DHT22;4465;50.904;4.696;2022-10-16T14:21:12;18.40;99.90
8858;DHT22;4465;50.904;4.696;2022-10-16T14:23:39;18.40;99.90
8858;DHT22;4465;50.904;4.696;2022-10-16T14:28:35;18.40;99.90
8858;DHT22;4465;50.904;4.696;2022-10-16T14:31:02;18.40;99.90
8858;DHT22;4465;50.904;4.696;2022-10-16T14:36:03;18.30;99.90
8858;DHT22;4465;50.904;4.696;2022-10-16T14:38:29;18.30;99.90
8858;DHT22;4465;50.904;4.696;2022-10-16T14:40:57;18.30;99.90
8858;DHT22;4465;50.904;4.696;2022-10-16T14:45:54;18.30;99.90
8858;DHT22;4465;50.904;4.696;2022-10-16T14:48:24;18.30;99.90
8858;DHT22;4465;50.904;4.696;2022-10-16T14:50:50;18.20;99.90
8858;DHT22;4465;50.904;4.696;2022-10-16T14:53:18;18.30;99.90
8858;DHT22;4465;50.904;4.696;2022-10-16T14:55:47;18.30;99.90
8858;DHT22;4465;50.904;4.696;2022-10-16T14:58:17;18.20;99.90
8858;DHT22;4465;50.904;4.696;2022-10-16T15:00:45;18.20;99.90
8858;DHT22;4465;50.904;4.696;2022-10-16T15:03:11;18.30;99.90
8858;DHT22;4465;50.904;4.696;2022-10-16T15:05:37;18.20;99.90
8858;DHT22;4465;50.904;4.696;2022-10-16T15:08:05;18.20;99.90
8858;DHT22;4465;50.904;4.696;2022-10-16T15:10:35;18.20;99.90
8858;DHT22;4465;50.904;4.696;2022-10-16T15:13:06;18.20;99.90
8858;DHT22;4465;50.904;4.696;2022-10-16T15:15:35;18.20;99.90
8858;DHT22;4465;50.904;4.696;2022-10-16T15:18:02;18.20;99.90
8858;DHT22;4465;50.904;4.696;2022-10-16T15:20:35;18.20;99.90
8858;DHT22;4465;50.904;4.696;2022-10-16T15:23:02;18.20;99.90
8858;DHT22;4465;50.904;4.696;2022-10-16T15:25:39;18.20;99.90
8858;DHT22;4465;50.904;4.696;2022-10-16T15:28:08;18.20;99.90
8858;DHT22;4465;50.904;4.696;2022-10-16T15:30:36;18.20;99.90
8858;DHT22;4465;50.904;4.696;2022-10-16T15:33:03;18.10;99.90
8858;DHT22;4465;50.904;4.696;2022-10-16T15:35:29;18.10;99.90
8858;DHT22;4465;50.904;4.696;2022-10-16T15:37:55;18.10;99.90
8858;DHT22;4465;50.904;4.696;2022-10-16T15:40:24;18.10;99.90
8858;DHT22;4465;50.904;4.696;2022-10-16T15:42:54;18.10;99.90
8858;DHT22;4465;50.904;4.696;2022-10-16T15:45:20;18.10;99.90
8858;DHT22;4465;50.904;4.696;2022-10-16T15:47:46;18.00;99.90
8858;DHT22;4465;50.904;4.696;2022-10-16T15:50:15;18.00;99.90
8858;DHT22;4465;50.904;4.696;2022-10-16T15:52:41;18.00;99.90
8858;DHT22;4465;50.904;4.696;2022-10-16T15:55:08;18.00;99.90
8858;DHT22;4465;50.904;4.696;2022-10-16T15:57:35;18.00;99.90
8858;DHT22;4465;50.904;4.696;2022-10-16T16:00:07;18.00;99.90
8858;DHT22;4465;50.904;4.696;2022-10-16T16:02:34;17.90;99.90
8858;DHT22;4465;50.904;4.696;2022-10-16T16:05:00;17.90;99.90
8858;DHT22;4465;50.904;4.696;2022-10-16T16:07:27;17.90;99.90
8858;DHT22;4465;50.904;4.696;2022-10-16T16:09:53;17.80;99.90
8858;DHT22;4465;50.904;4.696;2022-10-16T16:12:22;17.80;99.90
8858;DHT22;4465;50.904;4.696;2022-10-16T16:14:48;17.80;99.90
8858;DHT22;4465;50.904;4.696;2022-10-16T16:17:15;17.80;99.90
8858;DHT22;4465;50.904;4.696;2022-10-16T16:19:40;17.70;99.90
8858;DHT22;4465;50.904;4.696;2022-10-16T16:22:09;17.70;99.90
8858;DHT22;4465;50.904;4.696;2022-10-16T16:24:39;17.70;99.90
8858;DHT22;4465;50.904;4.696;2022-10-16T16:27:05;17.60;99.90
8858;DHT22;4465;50.904;4.696;2022-10-16T16:29:31;17.60;99.90
8858;DHT22;4465;50.904;4.696;2022-10-16T16:31:58;17.60;99.90
8858;DHT22;4465;50.904;4.696;2022-10-16T16:34:25;17.50;99.90
8858;DHT22;4465;50.904;4.696;2022-10-16T16:36:53;17.50;99.90
8858;DHT22;4465;50.904;4.696;2022-10-16T16:39:19;17.50;99.90
8858;DHT22;4465;50.904;4.696;2022-10-16T16:41:47;17.40;99.90
8858;DHT22;4465;50.904;4.696;2022-10-16T16:44:14;17.40;99.90
8858;DHT22;4465;50.904;4.696;2022-10-16T16:46:43;17.40;99.90
8858;DHT22;4465;50.904;4.696;2022-10-16T16:49:10;17.30;99.90
8858;DHT22;4465;50.904;4.696;2022-10-16T16:51:37;17.30;99.90
8858;DHT22;4465;50.904;4.696;2022-10-16T16:54:03;17.30;99.90
8858;DHT22;4465;50.904;4.696;2022-10-16T16:56:29;17.20;99.90
8858;DHT22;4465;50.904;4.696;2022-10-16T16:58:56;17.20;99.90
8858;DHT22;4465;50.904;4.696;2022-10-16T17:01:22;17.20;99.90
8858;DHT22;4465;50.904;4.696;2022-10-16T17:03:49;17.20;99.90
8858;DHT22;4465;50.904;4.696;2022-10-16T17:06:15;17.10;99.90
8858;DHT22;4465;50.904;4.696;2022-10-16T17:08:41;17.10;99.90
8858;DHT22;4465;50.904;4.696;2022-10-16T17:11:11;17.10;99.90
8858;DHT22;4465;50.904;4.696;2022-10-16T17:13:38;17.10;99.90
8858;DHT22;4465;50.904;4.696;2022-10-16T17:16:05;17.00;99.90
8858;DHT22;4465;50.904;4.696;2022-10-16T17:18:33;17.00;99.90
8858;DHT22;4465;50.904;4.696;2022-10-16T17:21:00;17.00;99.90
8858;DHT22;4465;50.904;4.696;2022-10-16T17:23:28;16.90;99.90
8858;DHT22;4465;50.904;4.696;2022-10-16T17:25:54;17.00;99.90
8858;DHT22;4465;50.904;4.696;2022-10-16T17:28:20;16.90;99.90
8858;DHT22;4465;50.904;4.696;2022-10-16T17:30:47;16.90;99.90
8858;DHT22;4465;50.904;4.696;2022-10-16T17:33:13;16.90;99.90
8858;DHT22;4465;50.904;4.696;2022-10-16T17:35:43;16.90;99.90
8858;DHT22;4465;50.904;4.696;2022-10-16T17:38:09;16.80;99.90
8858;DHT22;4465;50.904;4.696;2022-10-16T17:40:36;16.80;99.90
8858;DHT22;4465;50.904;4.696;2022-10-16T17:43:02;16.80;99.90
8858;DHT22;4465;50.904;4.696;2022-10-16T17:45:29;16.80;99.90
8858;DHT22;4465;50.904;4.696;2022-10-16T17:47:55;16.80;99.90
8858;DHT22;4465;50.904;4.696;2022-10-16T17:50:21;16.70;99.90
8858;DHT22;4465;50.904;4.696;2022-10-16T17:52:46;16.70;99.90
8858;DHT22;4465;50.904;4.696;2022-10-16T17:55:12;16.60;99.90
8858;DHT22;4465;50.904;4.696;2022-10-16T17:57:38;16.70;99.90
8858;DHT22;4465;50.904;4.696;2022-10-16T18:00:04;16.60;99.90
8858;DHT22;4465;50.904;4.696;2022-10-16T18:02:30;16.60;99.90
8858;DHT22;4465;50.904;4.696;2022-10-16T18:04:56;16.60;99.90
8858;DHT22;4465;50.904;4.696;2022-10-16T18:07:22;16.60;99.90